createdAt,value
2023-01-21T00:03:13.763Z,98406.09
2023-01-21T00:06:29.939Z,98409.41
2023-01-21T00:09:45.955Z,98406.36
2023-01-21T00:13:01.991Z,98406.48
2023-01-21T00:16:19.099Z,98404.95
2023-01-21T00:19:35.324Z,98404.47
2023-01-21T00:22:51.114Z,98404.86
2023-01-21T00:26:12.321Z,98404.63
2023-01-21T00:29:28.550Z,98414.11
2023-01-21T00:32:44.559Z,98412.33
2023-01-21T00:36:10.943Z,98408.19
2023-01-21T00:39:27.189Z,98405.71
2023-01-21T00:48:01.255Z,98409.00
2023-01-21T00:51:17.605Z,98414.80
2023-01-21T00:54:34.021Z,98415.29
2023-01-21T01:02:50.855Z,98430.22
2023-01-21T01:06:13.767Z,98429.27
2023-01-21T01:09:30.112Z,98425.82
2023-01-21T01:12:46.122Z,98423.70
2023-01-21T01:16:03.440Z,98426.30
2023-01-21T01:19:20.925Z,98425.91
2023-01-21T01:22:37.272Z,98429.69
2023-01-21T01:26:01.414Z,98416.03
2023-01-21T01:29:19.833Z,98414.36
2023-01-21T01:32:35.910Z,98416.74
2023-01-21T01:35:52.431Z,98401.41
2023-01-21T01:39:08.623Z,98400.91
2023-01-21T01:42:25.529Z,98398.30
2023-01-21T01:45:42.899Z,98390.38
2023-01-21T01:49:05.056Z,98386.68
2023-01-21T01:52:23.847Z,98389.39
2023-01-21T01:55:43.381Z,98382.06
2023-01-21T01:59:00.874Z,98390.61
2023-01-21T02:02:21.247Z,98389.52
2023-01-21T02:05:39.278Z,98388.44
2023-01-21T02:08:57.508Z,98395.05
2023-01-21T02:12:16.117Z,98393.30
2023-01-21T02:15:37.836Z,98397.67
2023-01-21T02:18:58.267Z,98394.82
2023-01-21T02:22:20.660Z,98399.46
2023-01-21T02:26:11.831Z,98395.05
2023-01-21T02:29:55.501Z,98392.92
2023-01-21T02:34:01.351Z,98394.82
2023-01-21T02:37:22.876Z,98398.38
2023-01-21T02:40:43.745Z,98390.41
2023-01-21T02:47:27.256Z,98383.30
2023-01-21T02:50:48.757Z,98380.69
2023-01-21T02:54:05.102Z,98386.05
2023-01-21T02:57:25.585Z,98386.17
2023-01-21T03:04:31.691Z,98379.40
2023-01-21T03:07:52.768Z,98378.72
2023-01-21T03:11:14.796Z,98368.28
2023-01-21T03:17:53.100Z,98377.88
2023-01-21T03:21:12.929Z,98381.56
2023-01-21T03:24:29.962Z,98385.02
2023-01-21T03:27:48.761Z,98379.66
2023-01-21T03:34:23.409Z,98374.45
2023-01-21T03:37:41.266Z,98367.44
2023-01-21T03:41:01.697Z,98378.14
2023-01-21T03:47:37.469Z,98379.45
2023-01-21T03:51:00.716Z,98372.61
2023-01-21T03:54:16.983Z,98377.70
2023-01-21T03:57:33.098Z,98380.30
2023-01-21T04:00:50.141Z,98378.51
2023-01-21T04:04:06.620Z,98375.77
2023-01-21T04:07:22.908Z,98374.95
2023-01-21T04:10:39.007Z,98379.45
2023-01-21T04:13:55.175Z,98383.73
2023-01-21T04:17:11.656Z,98378.27
2023-01-21T04:20:27.979Z,98376.34
2023-01-21T04:23:43.962Z,98374.00
2023-01-21T04:27:00.372Z,98376.61
2023-01-21T04:33:32.313Z,98355.88
2023-01-21T04:36:48.370Z,98360.96
2023-01-21T04:40:04.503Z,98353.77
2023-01-21T04:43:20.591Z,98360.75
2023-01-21T04:49:53.637Z,98359.30
2023-01-21T04:53:09.774Z,98370.55
2023-01-21T04:56:25.846Z,98365.73
2023-01-21T04:59:41.788Z,98370.95
2023-01-21T05:02:57.879Z,98365.47
2023-01-21T05:06:14.671Z,98375.91
2023-01-21T05:09:30.806Z,98368.92
2023-01-21T05:12:46.777Z,98370.69
2023-01-21T05:16:02.858Z,98376.75
2023-01-21T05:19:19.153Z,98372.34
2023-01-21T05:22:35.221Z,98372.48
2023-01-21T05:25:51.438Z,98369.88
2023-01-21T05:29:07.425Z,98375.91
2023-01-21T05:32:23.090Z,98378.64
2023-01-21T05:35:39.752Z,98374.14
2023-01-21T05:38:55.975Z,98371.63
2023-01-21T05:42:12.587Z,98374.38
2023-01-21T05:48:44.235Z,98380.30
2023-01-21T05:52:00.299Z,98392.14
2023-01-21T05:55:17.620Z,98375.40
2023-01-21T05:58:35.024Z,98378.51
2023-01-21T06:01:51.108Z,98382.55
2023-01-21T06:05:07.217Z,98386.61
2023-01-21T06:08:24.153Z,98387.11
2023-01-21T06:11:40.408Z,98393.14
2023-01-21T06:14:56.643Z,98387.28
2023-01-21T06:18:13.399Z,98401.04
2023-01-21T06:21:29.413Z,98397.22
2023-01-21T06:24:45.491Z,98405.89
2023-01-21T06:28:03.758Z,98407.55
2023-01-21T06:34:35.381Z,98410.40
2023-01-21T06:37:51.677Z,98410.53
2023-01-21T06:41:07.860Z,98413.72
2023-01-21T06:44:24.453Z,98415.61
2023-01-21T06:47:40.814Z,98421.78
2023-01-21T06:50:57.228Z,98430.19
2023-01-21T06:54:13.799Z,98445.48
2023-01-21T06:57:29.932Z,98438.36
2023-01-21T07:00:46.007Z,98445.71
2023-01-21T07:04:02.394Z,98435.32
2023-01-21T07:07:19.019Z,98446.21
2023-01-21T07:10:35.507Z,98449.08
2023-01-21T07:13:51.513Z,98453.67
2023-01-21T07:17:07.651Z,98450.56
2023-01-21T07:20:24.565Z,98459.34
2023-01-21T07:23:40.757Z,98461.77
2023-01-21T07:26:57.627Z,98467.80
2023-01-21T07:30:16.708Z,98472.28
2023-01-21T07:33:33.310Z,98467.75
2023-01-21T07:36:49.611Z,98474.05
2023-01-21T07:40:06.012Z,98474.41
2023-01-21T07:43:22.451Z,98482.14
2023-01-21T07:46:39.118Z,98479.53
2023-01-21T07:49:56.172Z,98487.46
2023-01-21T07:53:12.365Z,98483.77
2023-01-21T07:56:28.624Z,98483.77
2023-01-21T07:59:46.072Z,98493.72
2023-01-21T08:03:02.884Z,98492.77
2023-01-21T08:06:19.093Z,98499.66
2023-01-21T08:09:35.743Z,98497.89
2023-01-21T08:12:52.293Z,98506.17
2023-01-21T08:19:24.320Z,98506.27
2023-01-21T08:22:41.345Z,98498.44
2023-01-21T08:26:01.290Z,98506.98
2023-01-21T08:29:17.648Z,98502.34
2023-01-21T08:32:38.231Z,98515.27
2023-01-21T08:35:57.273Z,98509.91
2023-01-21T08:39:17.145Z,98513.82
2023-01-21T08:42:33.192Z,98520.13
2023-01-21T08:49:05.938Z,98522.64
2023-01-21T08:52:22.367Z,98530.97
2023-01-21T08:55:38.573Z,98532.50
2023-01-21T08:58:56.835Z,98542.70
2023-01-21T09:02:13.571Z,98553.38
2023-01-21T09:05:30.387Z,98555.86
2023-01-21T09:08:46.481Z,98552.89
2023-01-21T09:12:02.823Z,98554.06
2023-01-21T09:15:20.121Z,98559.64
2023-01-21T09:18:36.656Z,98564.73
2023-01-21T09:21:53.127Z,98565.13
2023-01-21T09:25:12.225Z,98563.69
2023-01-21T09:28:29.183Z,98566.61
2023-01-21T09:35:01.638Z,98567.20
2023-01-21T09:38:18.182Z,98572.16
2023-01-21T09:41:39.648Z,98569.77
2023-01-21T09:44:59.516Z,98567.38
2023-01-21T09:48:39.830Z,98569.27
2023-01-21T09:52:12.209Z,98582.01
2023-01-21T09:55:32.613Z,98580.22
2023-01-21T09:58:53.364Z,98585.30
2023-01-21T10:02:13.343Z,98594.09
2023-01-21T10:05:58.799Z,98594.22
2023-01-21T10:09:47.247Z,98596.66
2023-01-21T10:13:19.688Z,98592.73
2023-01-21T10:16:42.078Z,98597.82
2023-01-21T10:20:03.287Z,98590.38
2023-01-21T10:23:26.375Z,98586.69
2023-01-21T10:26:44.383Z,98601.28
2023-01-21T10:30:07.457Z,98585.34
2023-01-21T10:33:28.218Z,98595.08
2023-01-21T10:37:05.203Z,98588.22
2023-01-21T10:40:28.570Z,98595.08
2023-01-21T10:43:51.729Z,98592.94
2023-01-21T10:47:15.330Z,98586.95
2023-01-21T10:50:45.321Z,98586.95
2023-01-21T10:54:06.426Z,98604.28
2023-01-21T10:57:33.492Z,98598.98
2023-01-21T11:00:53.282Z,98605.52
2023-01-21T11:04:13.481Z,98594.97
2023-01-21T11:07:31.057Z,98592.99
2023-01-21T11:10:49.378Z,98590.93
2023-01-21T11:14:05.926Z,98598.90
2023-01-21T11:20:44.781Z,98608.03
2023-01-21T11:24:06.638Z,98606.58
2023-01-21T11:27:39.232Z,98609.14
2023-01-21T11:30:56.082Z,98602.83
2023-01-21T11:34:19.072Z,98602.55
2023-01-21T11:37:37.912Z,98606.95
2023-01-21T11:40:54.379Z,98603.33
2023-01-21T11:44:27.580Z,98599.77
2023-01-21T11:47:54.556Z,98595.87
2023-01-21T11:51:19.068Z,98609.74
2023-01-21T11:54:35.468Z,98610.59
2023-01-21T11:57:56.035Z,98614.20
2023-01-21T12:04:28.123Z,98613.84
2023-01-21T12:07:48.197Z,98618.56
2023-01-21T12:11:08.667Z,98609.70
2023-01-21T12:14:30.344Z,98616.45
2023-01-21T12:17:57.814Z,98620.52
2023-01-21T12:21:18.963Z,98632.98
2023-01-21T12:24:48.156Z,98624.78
2023-01-21T12:28:36.377Z,98630.11
2023-01-21T12:31:59.741Z,98630.38
2023-01-21T12:35:22.205Z,98642.36
2023-01-21T12:38:43.977Z,98642.36
2023-01-21T12:42:10.045Z,98650.52
2023-01-21T12:45:43.973Z,98656.95
2023-01-21T12:49:04.920Z,98665.73
2023-01-21T12:52:27.534Z,98679.15
2023-01-21T12:55:55.748Z,98681.27
2023-01-21T12:59:19.923Z,98684.38
2023-01-21T13:05:58.592Z,98696.49
2023-01-21T13:09:20.249Z,98706.48
2023-01-21T13:12:39.232Z,98714.91
2023-01-21T13:15:59.684Z,98715.27
2023-01-21T13:19:18.858Z,98714.58
2023-01-21T13:22:44.481Z,98720.98
2023-01-21T13:26:05.693Z,98732.25
2023-01-21T13:29:27.665Z,98730.22
2023-01-21T13:32:52.433Z,98736.39
2023-01-21T13:36:21.024Z,98732.83
2023-01-21T13:39:47.669Z,98736.39
2023-01-21T13:43:11.131Z,98746.13
2023-01-21T13:46:41.459Z,98743.17
2023-01-21T13:50:20.910Z,98753.37
2023-01-21T13:53:47.519Z,98746.38
2023-01-21T13:57:30.513Z,98749.22
2023-01-21T14:06:25.218Z,98751.84
2023-01-21T14:09:46.751Z,98760.06
2023-01-21T14:13:34.345Z,98766.70
2023-01-21T14:17:31.211Z,98763.02
2023-01-21T14:21:21.661Z,98773.34
2023-01-21T14:25:21.486Z,98781.17
2023-01-21T14:28:43.327Z,98787.46
2023-01-21T14:32:02.923Z,98800.52
2023-01-21T14:35:28.313Z,98796.49
2023-01-21T14:38:50.188Z,98808.48
2023-01-21T14:42:18.146Z,98817.47
2023-01-21T14:45:58.852Z,98816.66
2023-01-21T14:49:17.269Z,98829.23
2023-01-21T14:52:39.309Z,98833.86
2023-01-21T14:56:15.920Z,98835.53
2023-01-21T14:59:42.688Z,98853.08
2023-01-21T15:03:05.173Z,98858.77
2023-01-21T15:06:28.619Z,98872.88
2023-01-21T15:09:49.527Z,98875.73
2023-01-21T15:13:13.145Z,98880.11
2023-01-21T15:19:47.571Z,98886.27
2023-01-21T15:23:30.694Z,98895.31
2023-01-21T15:26:47.743Z,98900.66
2023-01-21T15:30:33.923Z,98903.14
2023-01-21T15:33:57.908Z,98910.16
2023-01-21T15:37:21.846Z,98920.81
2023-01-21T15:40:43.616Z,98919.17
2023-01-21T15:44:17.928Z,98934.84
2023-01-21T15:50:57.003Z,98945.48
2023-01-21T15:54:30.031Z,98943.13
2023-01-21T15:57:56.450Z,98947.03
2023-01-21T16:06:23.281Z,98951.92
2023-01-21T16:09:49.825Z,98951.53
2023-01-21T16:13:15.003Z,98952.38
2023-01-21T16:16:42.305Z,98959.03
2023-01-21T16:20:02.603Z,98975.30
2023-01-21T16:23:22.055Z,98976.15
2023-01-21T16:26:41.655Z,98973.63
2023-01-21T16:30:02.596Z,98968.66
2023-01-21T16:33:23.589Z,98973.38
2023-01-21T16:36:46.551Z,98972.81
2023-01-21T16:40:21.585Z,98968.45
2023-01-21T16:43:39.542Z,98989.00
2023-01-21T16:46:57.505Z,98987.49
2023-01-21T16:50:23.301Z,98986.64
2023-01-21T16:53:41.190Z,98990.02
2023-01-21T16:57:01.380Z,98989.20
2023-01-21T17:00:32.385Z,98996.70
2023-01-21T17:03:49.540Z,98991.70
2023-01-21T17:07:06.253Z,98996.54
2023-01-21T17:10:29.727Z,99006.98
2023-01-21T17:13:49.215Z,99010.08
2023-01-21T17:17:09.874Z,99009.43
2023-01-21T17:20:51.096Z,99014.17
2023-01-21T17:24:11.818Z,99026.91
2023-01-21T17:27:28.833Z,99032.23
2023-01-21T17:30:45.649Z,99032.92
2023-01-21T17:34:26.519Z,99050.14
2023-01-21T17:37:59.266Z,99052.02
2023-01-21T17:41:20.994Z,99060.05
2023-01-21T17:44:37.461Z,99063.09
2023-01-21T17:48:09.379Z,99063.95
2023-01-21T17:51:21.950Z,99073.53
2023-01-21T17:54:38.442Z,99070.72
2023-01-21T17:57:55.089Z,99076.33
2023-01-21T18:01:12.457Z,99077.80
2023-01-21T18:04:29.368Z,99091.17
2023-01-21T18:07:46.931Z,99098.27
2023-01-21T18:11:03.201Z,99101.81
2023-01-21T18:14:24.606Z,99097.13
2023-01-21T18:17:41.766Z,99098.77
2023-01-21T18:20:58.606Z,99106.71
2023-01-21T18:24:17.100Z,99108.52
2023-01-21T18:27:35.246Z,99108.24
2023-01-21T18:30:53.814Z,99115.76
2023-01-21T18:34:11.342Z,99117.20
2023-01-21T18:37:30.558Z,99122.42
2023-01-21T18:40:47.211Z,99130.64
2023-01-21T18:44:03.460Z,99130.82
2023-01-21T18:47:23.712Z,99148.27
2023-01-21T18:50:40.127Z,99143.14
2023-01-21T18:53:56.498Z,99142.44
2023-01-21T18:57:16.376Z,99146.38
2023-01-21T19:00:35.225Z,99148.66
2023-01-21T19:03:51.699Z,99152.71
2023-01-21T19:07:14.741Z,99156.36
2023-01-21T19:10:31.260Z,99153.31
2023-01-21T19:13:47.501Z,99154.25
2023-01-21T19:17:04.103Z,99167.42
2023-01-21T19:20:31.445Z,99170.63
2023-01-21T19:23:48.282Z,99179.81
2023-01-21T19:27:05.103Z,99184.80
2023-01-21T19:30:33.757Z,99189.32
2023-01-21T19:33:50.295Z,99193.11
2023-01-21T19:37:08.406Z,99190.49
2023-01-21T19:40:28.160Z,99202.94
2023-01-21T19:43:44.509Z,99205.55
2023-01-21T19:47:04.715Z,99216.81
2023-01-21T19:50:28.570Z,99212.09
2023-01-21T19:53:46.184Z,99223.28
2023-01-21T19:57:02.556Z,99223.48
2023-01-21T20:00:29.577Z,99218.59
2023-01-21T20:03:59.357Z,99222.66
2023-01-21T20:07:04.281Z,99220.05
2023-01-21T20:10:28.243Z,99234.66
2023-01-21T20:13:44.567Z,99233.10
2023-01-21T20:17:03.686Z,99245.93
2023-01-21T20:20:30.755Z,99244.29
2023-01-21T20:23:47.255Z,99258.91
2023-01-21T20:27:04.594Z,99256.38
2023-01-21T20:30:29.510Z,99258.17
2023-01-21T20:33:46.823Z,99254.31
2023-01-21T20:37:03.765Z,99254.31
2023-01-21T20:40:26.692Z,99265.38
2023-01-21T20:43:43.081Z,99272.05
2023-01-21T20:46:59.525Z,99268.38
2023-01-21T20:50:27.029Z,99263.28
2023-01-21T20:53:45.931Z,99281.56
2023-01-21T20:57:02.102Z,99283.47
2023-01-21T21:00:27.791Z,99285.34
2023-01-21T21:03:44.048Z,99297.47
2023-01-21T21:07:00.281Z,99294.11
2023-01-21T21:10:26.805Z,99281.98
2023-01-21T21:13:43.417Z,99288.14
2023-01-21T21:17:01.049Z,99291.50
2023-01-21T21:20:25.563Z,99298.52
2023-01-21T21:23:42.178Z,99297.58
2023-01-21T21:26:58.969Z,99302.80
2023-01-21T21:30:21.784Z,99311.57
2023-01-21T21:33:42.162Z,99300.39
2023-01-21T21:36:58.566Z,99315.12
2023-01-21T21:40:18.875Z,99309.05
2023-01-21T21:43:37.951Z,99316.36
2023-01-21T21:47:08.268Z,99321.70
2023-01-21T21:50:24.923Z,99325.14
2023-01-21T21:53:41.379Z,99321.92
2023-01-21T21:56:57.610Z,99322.64
2023-01-21T22:00:17.872Z,99314.69
2023-01-21T22:03:34.261Z,99330.27
2023-01-21T22:06:50.759Z,99328.48
2023-01-21T22:10:07.054Z,99330.98
2023-01-21T22:13:24.309Z,99330.98
2023-01-21T22:16:41.193Z,99340.61
2023-01-21T22:19:57.576Z,99340.61
2023-01-21T22:23:13.906Z,99337.25
2023-01-21T22:26:33.113Z,99338.93
2023-01-21T22:29:49.733Z,99339.67
2023-01-21T22:33:06.533Z,99349.27
2023-01-21T22:36:26.327Z,99352.92
2023-01-21T22:39:42.569Z,99347.70
2023-01-21T22:43:00.850Z,99346.03
2023-01-21T22:46:18.896Z,99344.38
2023-01-21T22:49:36.295Z,99358.15
2023-01-21T22:52:55.571Z,99352.52
2023-01-21T22:56:13.928Z,99355.24
2023-01-21T22:59:30.092Z,99369.23
2023-01-21T23:02:46.215Z,99355.55
2023-01-21T23:06:09.516Z,99354.91
2023-01-21T23:09:26.129Z,99351.56
2023-01-21T23:12:44.607Z,99350.85
2023-01-21T23:16:01.542Z,99351.89
2023-01-21T23:19:18.067Z,99349.36
2023-01-21T23:22:34.241Z,99360.77
2023-01-21T23:25:52.380Z,99359.80
2023-01-21T23:29:08.551Z,99353.02
2023-01-21T23:32:25.443Z,99357.53
2023-01-21T23:35:43.010Z,99363.05
2023-01-21T23:38:59.603Z,99369.95
2023-01-21T23:42:15.938Z,99363.05
2023-01-21T23:45:32.089Z,99376.28
2023-01-21T23:48:48.891Z,99384.97
2023-01-21T23:52:06.492Z,99383.52
2023-01-21T23:55:22.743Z,99384.55
2023-01-21T23:58:41.791Z,99389.84
